Time;durP1;ratioP1;P1;durP2;ratioP2;P2;SDS_P1;SDS_P2;PMS_P1;PMS_P2;Temp;Humidity;BMP_temperature;BMP_pressure;BME280_temperature;BME280_humidity;BME280_pressure;Samples;Min_cycle;Max_cycle;Signal;HPM_P1;HPM_P2
2024/02/13 05:08:11;;;;;;;0.30;0.30;;;6.70;99.90;;;;;;4976322;28;20542;-66
2024/02/13 05:10:37;;;;;;;0.30;0.30;;;6.70;99.90;;;;;;4976407;28;20172;-68
2024/02/13 05:13:03;;;;;;;0.40;0.40;;;6.70;99.90;;;;;;4976458;28;20172;-67
2024/02/13 05:15:29;;;;;;;0.30;0.30;;;6.70;99.90;;;;;;4972508;28;20271;-67
2024/02/13 05:17:56;;;;;;;0.30;0.30;;;6.70;99.90;;;;;;4957023;29;20840;-68
2024/02/13 05:20:23;;;;;;;0.30;0.30;;;6.70;99.90;;;;;;4956848;29;20256;-67
2024/02/13 05:22:49;;;;;;;0.30;0.30;;;6.60;99.90;;;;;;4956747;29;20224;-66
2024/02/13 05:25:14;;;;;;;0.30;0.30;;;6.70;99.90;;;;;;4956324;28;20165;-68
2024/02/13 05:27:40;;;;;;;0.30;0.30;;;6.60;99.90;;;;;;4956981;28;20451;-67
2024/02/13 05:30:07;;;;;;;0.30;0.30;;;6.70;99.90;;;;;;4956950;29;20264;-66
2024/02/13 05:32:33;;;;;;;0.30;0.30;;;6.70;99.90;;;;;;4956443;29;20778;-66
2024/02/13 05:34:59;;;;;;;0.30;0.30;;;6.70;99.90;;;;;;4955674;29;20236;-68
2024/02/13 05:37:25;;;;;;;0.30;0.30;;;6.70;99.90;;;;;;4955935;28;20581;-66
2024/02/13 05:39:54;;;;;;;0.30;0.30;;;6.70;99.90;;;;;;4956515;29;20204;-66
2024/02/13 05:42:20;;;;;;;0.32;0.32;;;6.70;99.90;;;;;;4956621;28;20179;-68
2024/02/13 05:44:45;;;;;;;0.40;0.40;;;6.70;99.90;;;;;;4956057;28;20172;-65
2024/02/13 05:47:12;;;;;;;0.30;0.30;;;6.70;99.90;;;;;;4951745;28;20519;-65
2024/02/13 05:49:38;;;;;;;0.30;0.30;;;6.80;99.90;;;;;;4956478;28;20419;-65
2024/02/13 05:52:05;;;;;;;0.30;0.30;;;6.80;99.90;;;;;;4956101;28;20510;-67
2024/02/13 05:54:32;;;;;;;0.40;0.40;;;6.80;99.90;;;;;;4950924;29;20425;-66
2024/02/13 05:56:57;;;;;;;0.30;0.30;;;6.80;99.90;;;;;;4936893;29;20663;-67
2024/02/13 05:59:25;;;;;;;0.40;0.40;;;6.80;99.90;;;;;;4936947;29;20208;-66
2024/02/13 06:01:54;;;;;;;0.30;0.30;;;6.80;99.90;;;;;;4936529;29;20180;-66
2024/02/13 06:04:20;;;;;;;0.40;0.40;;;6.80;99.90;;;;;;4942654;29;20635;-64
2024/02/13 06:06:47;;;;;;;0.30;0.30;;;6.70;99.90;;;;;;4955709;28;20329;-65
2024/02/13 06:09:20;;;;;;;0.40;0.40;;;6.70;99.90;;;;;;4954341;29;20176;-65
2024/02/13 06:11:47;;;;;;;0.32;0.32;;;6.70;99.90;;;;;;4956117;28;20176;-67
2024/02/13 06:14:12;;;;;;;0.40;0.40;;;6.70;99.90;;;;;;4960412;28;20206;-66
2024/02/13 06:16:38;;;;;;;0.30;0.30;;;6.70;99.90;;;;;;4973418;28;20202;-66
2024/02/13 06:19:05;;;;;;;0.40;0.40;;;6.70;99.90;;;;;;4969167;28;20236;-67
2024/02/13 06:21:32;;;;;;;0.30;0.30;;;6.70;99.90;;;;;;4956001;28;20236;-66
2024/02/13 06:23:58;;;;;;;0.40;0.40;;;6.70;99.90;;;;;;4955663;28;20164;-68
2024/02/13 06:26:24;;;;;;;0.30;0.30;;;6.70;99.90;;;;;;4955150;28;20189;-66
2024/02/13 06:28:50;;;;;;;0.30;0.30;;;6.70;99.90;;;;;;4957645;28;20280;-69
2024/02/13 06:31:16;;;;;;;0.30;0.30;;;6.60;99.90;;;;;;4974716;28;20263;-65
2024/02/13 06:33:42;;;;;;;0.30;0.30;;;6.60;99.90;;;;;;4973525;28;20244;-63
2024/02/13 06:36:08;;;;;;;0.30;0.30;;;6.60;99.90;;;;;;4974420;28;20192;-65
2024/02/13 06:38:35;;;;;;;0.30;0.30;;;6.70;99.90;;;;;;4974140;28;20192;-67
2024/02/13 06:41:05;;;;;;;0.30;0.30;;;6.70;99.90;;;;;;4936249;29;20472;-67
2024/02/13 06:43:34;;;;;;;0.40;0.40;;;6.70;99.90;;;;;;4936345;29;20165;-66
2024/02/13 06:46:01;;;;;;;0.30;0.30;;;6.80;99.90;;;;;;4935658;29;20186;-68
2024/02/13 06:48:26;;;;;;;0.30;0.30;;;6.80;99.90;;;;;;4936201;28;20166;-65
2024/02/13 06:50:52;;;;;;;0.30;0.30;;;6.80;99.90;;;;;;4953207;29;20227;-63
2024/02/13 06:53:17;;;;;;;0.50;0.50;;;6.90;99.90;;;;;;4955349;28;20164;-66
2024/02/13 06:55:43;;;;;;;0.30;0.30;;;6.90;99.90;;;;;;4954588;28;20192;-66
2024/02/13 06:58:10;;;;;;;0.30;0.30;;;6.90;99.90;;;;;;4954998;28;20546;-65
2024/02/13 07:00:36;;;;;;;0.30;0.30;;;6.90;99.90;;;;;;4947848;28;20180;-66
2024/02/13 07:03:02;;;;;;;0.40;0.40;;;6.90;99.90;;;;;;4951727;28;20185;-65
2024/02/13 07:05:28;;;;;;;0.30;0.30;;;6.90;99.90;;;;;;4935249;29;20656;-65
2024/02/13 07:07:53;;;;;;;0.30;0.30;;;7.00;99.90;;;;;;4934230;29;20216;-63
2024/02/13 07:10:19;;;;;;;0.30;0.30;;;7.00;99.90;;;;;;4935896;29;20178;-65
2024/02/13 07:12:45;;;;;;;0.50;0.50;;;7.10;99.90;;;;;;4938966;28;20185;-68
2024/02/13 07:15:10;;;;;;;0.43;0.43;;;7.20;99.90;;;;;;4951367;28;20259;-65
2024/02/13 07:17:36;;;;;;;0.30;0.30;;;7.30;99.90;;;;;;4935583;29;20593;-64
2024/02/13 07:20:02;;;;;;;0.30;0.30;;;7.30;99.90;;;;;;4935777;29;20224;-67
2024/02/13 07:22:27;;;;;;;0.37;0.37;;;7.40;99.90;;;;;;4935583;29;20183;-68
2024/02/13 07:24:53;;;;;;;0.30;0.30;;;7.40;99.90;;;;;;4935410;29;20203;-68
2024/02/13 07:27:18;;;;;;;0.40;0.40;;;7.40;99.90;;;;;;4934418;29;20197;-68
2024/02/13 07:29:44;;;;;;;0.30;0.30;;;7.40;99.90;;;;;;4941362;29;20223;-67
2024/02/13 07:32:10;;;;;;;0.40;0.40;;;7.40;99.90;;;;;;4953316;28;20243;-67
2024/02/13 07:34:40;;;;;;;0.30;0.30;;;7.40;99.90;;;;;;4952423;28;20181;-69
2024/02/13 07:37:07;;;;;;;0.45;0.45;;;7.40;99.90;;;;;;4952660;28;20188;-68
2024/02/13 07:39:33;;;;;;;0.30;0.30;;;7.50;99.90;;;;;;4948136;28;20228;-70
2024/02/13 07:41:59;;;;;;;0.30;0.30;;;7.50;99.90;;;;;;4933597;29;20169;-68
2024/02/13 07:44:27;;;;;;;0.33;0.33;;;7.60;99.90;;;;;;4933657;29;20181;-68
2024/02/13 07:46:54;;;;;;;0.30;0.30;;;7.60;99.90;;;;;;4934384;29;20441;-65
2024/02/13 07:49:19;;;;;;;0.40;0.40;;;7.70;99.90;;;;;;4935391;29;20184;-70
2024/02/13 07:51:45;;;;;;;0.30;0.30;;;7.80;99.90;;;;;;4935856;29;20658;-69
2024/02/13 07:54:14;;;;;;;0.30;0.30;;;7.90;99.90;;;;;;4935580;29;20170;-68
2024/02/13 07:56:41;;;;;;;0.30;0.20;;;8.10;99.90;;;;;;4935164;29;20189;-68
2024/02/13 07:59:06;;;;;;;0.30;0.30;;;8.20;99.90;;;;;;4935533;29;20197;-68
2024/02/13 08:01:33;;;;;;;0.30;0.30;;;8.70;99.90;;;;;;4954816;28;20178;-69
2024/02/13 08:04:00;;;;;;;0.30;0.30;;;9.30;99.90;;;;;;4954926;28;20440;-69
2024/02/13 08:06:26;;;;;;;0.30;0.30;;;9.70;99.90;;;;;;4954188;28;20454;-69
2024/02/13 08:08:52;;;;;;;0.30;0.30;;;10.00;99.90;;;;;;4954530;28;20407;-66
2024/02/13 08:11:18;;;;;;;0.30;0.30;;;10.10;99.90;;;;;;4969588;28;20400;-69
2024/02/13 08:13:44;;;;;;;0.40;0.40;;;10.20;99.90;;;;;;4973918;28;20179;-68
2024/02/13 08:16:11;;;;;;;0.30;0.30;;;10.20;99.90;;;;;;4973033;28;20444;-66
2024/02/13 08:18:37;;;;;;;0.30;0.20;;;10.20;99.90;;;;;;4973591;28;20517;-69
2024/02/13 08:21:03;;;;;;;0.40;0.40;;;10.20;99.90;;;;;;4972555;28;20500;-67
2024/02/13 08:23:29;;;;;;;0.30;0.27;;;10.20;99.90;;;;;;4974026;28;20414;-70
2024/02/13 08:25:55;;;;;;;0.30;0.30;;;10.20;99.90;;;;;;4958954;28;20204;-67
2024/02/13 08:28:21;;;;;;;0.30;0.30;;;10.60;99.90;;;;;;4957758;28;20458;-70
2024/02/13 08:30:50;;;;;;;0.30;0.30;;;11.50;99.90;;;;;;4945668;28;20451;-66
2024/02/13 08:33:16;;;;;;;0.30;0.30;;;12.50;99.90;;;;;;4938678;29;20806;-73
2024/02/13 08:35:42;;;;;;;0.30;0.30;;;13.50;99.90;;;;;;4938113;29;20857;-70
2024/02/13 08:38:11;;;;;;;0.30;0.30;;;14.50;99.90;;;;;;4938386;29;20490;-71
2024/02/13 08:40:36;;;;;;;0.30;0.20;;;15.40;99.80;;;;;;4938601;29;21043;-72
2024/02/13 08:43:02;;;;;;;0.30;0.20;;;16.20;97.90;;;;;;4938381;29;20471;-69
2024/02/13 08:45:28;;;;;;;0.30;0.30;;;16.90;97.20;;;;;;4937930;29;20220;-71
2024/02/13 08:47:55;;;;;;;0.33;0.33;;;17.90;95.40;;;;;;4938167;29;20170;-68
2024/02/13 08:50:20;;;;;;;0.30;0.30;;;18.60;92.10;;;;;;4952372;28;20422;-72
2024/02/13 08:52:46;;;;;;;0.30;0.20;;;18.80;92.30;;;;;;4976582;28;20425;-70
2024/02/13 08:55:13;;;;;;;0.30;0.20;;;19.20;91.90;;;;;;4976117;28;20257;-73
2024/02/13 08:57:39;;;;;;;0.30;0.20;;;19.80;88.90;;;;;;4976458;28;20175;-66
2024/02/13 09:00:06;;;;;;;0.30;0.20;;;19.70;87.30;;;;;;4970831;28;20569;-66
2024/02/13 09:02:32;;;;;;;0.30;0.20;;;19.70;88.30;;;;;;4957493;28;20295;-67
2024/02/13 09:04:58;;;;;;;0.30;0.20;;;20.00;88.50;;;;;;4956855;28;20387;-74
2024/02/13 09:07:24;;;;;;;0.30;0.20;;;20.30;84.20;;;;;;4956847;28;20446;-67
2024/02/13 09:09:49;;;;;;;0.30;0.20;;;20.00;85.00;;;;;;4954436;28;20192;-67
2024/02/13 09:12:15;;;;;;;0.40;0.40;;;19.90;84.20;;;;;;4955087;28;20198;-66
2024/02/13 09:14:41;;;;;;;0.30;0.30;;;20.00;85.60;;;;;;4974843;28;20282;-66
2024/02/13 09:17:08;;;;;;;0.30;0.30;;;20.20;84.10;;;;;;4976272;28;20407;-75
2024/02/13 09:19:33;;;;;;;0.30;0.30;;;20.00;84.70;;;;;;4974890;28;20204;-71
2024/02/13 09:21:59;;;;;;;0.40;0.30;;;20.00;84.30;;;;;;4956252;28;20415;-74
2024/02/13 09:24:27;;;;;;;0.43;0.40;;;20.30;84.70;;;;;;4956516;28;20173;-69
2024/02/13 09:26:53;;;;;;;0.30;0.20;;;20.70;83.30;;;;;;4956878;28;20673;-72
2024/02/13 09:29:19;;;;;;;0.30;0.20;;;20.80;81.50;;;;;;4955520;29;20515;-67
2024/02/13 09:31:44;;;;;;;0.30;0.20;;;21.10;83.00;;;;;;4938444;29;20512;-67
2024/02/13 09:34:13;;;;;;;0.30;0.30;;;21.40;81.10;;;;;;4936036;29;20182;-67
2024/02/13 09:36:38;;;;;;;0.30;0.30;;;21.20;79.60;;;;;;4936373;29;20284;-74
2024/02/13 09:39:04;;;;;;;0.30;0.20;;;20.90;80.10;;;;;;4937305;29;20540;-64
2024/02/13 09:41:31;;;;;;;0.40;0.30;;;20.70;81.10;;;;;;4951507;29;20189;-68
2024/02/13 09:43:57;;;;;;;0.30;0.30;;;20.90;82.10;;;;;;4956939;28;20384;-70
2024/02/13 09:46:25;;;;;;;0.43;0.43;;;21.40;79.50;;;;;;4956242;28;20466;-67
2024/02/13 09:48:54;;;;;;;0.30;0.27;;;21.80;77.70;;;;;;4960872;28;20423;-67
2024/02/13 09:51:21;;;;;;;0.30;0.20;;;21.70;77.40;;;;;;4956590;28;20471;-72
2024/02/13 09:53:47;;;;;;;0.30;0.30;;;21.60;77.20;;;;;;4956467;28;20405;-61
2024/02/13 09:56:14;;;;;;;0.37;0.37;;;21.50;79.00;;;;;;4958712;28;20427;-63
2024/02/13 09:58:41;;;;;;;0.30;0.20;;;21.60;79.10;;;;;;4987089;28;20845;-63
2024/02/13 10:01:07;;;;;;;0.30;0.20;;;21.30;77.40;;;;;;4963986;28;20407;-62
2024/02/13 10:03:35;;;;;;;0.40;0.40;;;21.20;78.60;;;;;;4967890;28;20815;-69
2024/02/13 10:06:01;;;;;;;0.30;0.20;;;21.10;78.50;;;;;;4966025;28;20603;-71
2024/02/13 10:08:30;;;;;;;0.30;0.30;;;21.00;77.20;;;;;;4967324;28;20390;-70
2024/02/13 10:11:15;;;;;;;0.30;0.30;;;20.70;77.40;;;;;;4971980;28;20172;-71
2024/02/13 10:13:41;;;;;;;0.30;0.30;;;20.40;79.10;;;;;;4966294;28;20435;-67
2024/02/13 10:16:26;;;;;;;0.37;0.37;;;20.30;79.30;;;;;;4966060;28;20948;-66
2024/02/13 10:18:57;;;;;;;0.30;0.30;;;20.20;79.60;;;;;;4963313;28;20200;-73
2024/02/13 10:21:27;;;;;;;0.30;0.30;;;20.20;79.70;;;;;;4955973;28;20498;-69
2024/02/13 10:24:03;;;;;;;0.30;0.30;;;20.10;79.40;;;;;;4963059;28;20792;-72
2024/02/13 10:26:28;;;;;;;0.30;0.30;;;19.70;79.80;;;;;;4955794;28;20409;-74
2024/02/13 10:28:56;;;;;;;0.30;0.20;;;19.40;79.40;;;;;;4957349;29;20766;-72
2024/02/13 10:31:26;;;;;;;0.30;0.30;;;19.00;80.40;;;;;;4965445;28;20182;-68
2024/02/13 10:33:54;;;;;;;0.30;0.30;;;18.70;81.50;;;;;;4948019;28;20522;-69
2024/02/13 10:36:20;;;;;;;0.30;0.27;;;17.90;82.10;;;;;;4938178;29;20427;-69
2024/02/13 10:38:51;;;;;;;0.30;0.20;;;17.10;83.80;;;;;;4937505;29;20431;-70
2024/02/13 10:41:23;;;;;;;0.30;0.30;;;16.70;87.00;;;;;;4936340;29;20384;-65
2024/02/13 10:43:52;;;;;;;0.30;0.30;;;16.90;88.00;;;;;;4951294;29;20778;-67
2024/02/13 10:46:24;;;;;;;0.40;0.40;;;17.10;86.60;;;;;;4955010;28;20435;-66
2024/02/13 10:49:15;;;;;;;0.30;0.30;;;17.30;85.90;;;;;;4954090;28;20395;-66
2024/02/13 10:51:42;;;;;;;0.30;0.30;;;17.50;85.60;;;;;;4955150;29;20434;-65
2024/02/13 10:54:11;;;;;;;0.30;0.30;;;17.90;85.80;;;;;;4937779;28;20392;-69
2024/02/13 10:56:40;;;;;;;0.30;0.20;;;18.30;83.10;;;;;;4935954;29;20422;-69
2024/02/13 10:59:07;;;;;;;0.30;0.20;;;18.40;83.70;;;;;;4935040;29;20439;-65
2024/02/13 11:01:38;;;;;;;0.30;0.20;;;18.60;84.30;;;;;;4936130;29;20942;-65
2024/02/13 11:04:03;;;;;;;0.30;0.20;;;18.80;81.60;;;;;;4934469;29;20980;-65
2024/02/13 11:06:30;;;;;;;0.30;0.30;;;18.90;82.00;;;;;;4935197;29;20542;-66
2024/02/13 11:08:57;;;;;;;0.30;0.20;;;19.00;82.20;;;;;;4935684;29;20612;-66
2024/02/13 11:11:24;;;;;;;0.30;0.20;;;18.60;77.10;;;;;;4935859;29;20519;-69
2024/02/13 11:13:50;;;;;;;0.30;0.30;;;17.70;78.00;;;;;;4949214;28;20398;-67
2024/02/13 11:16:17;;;;;;;0.30;0.20;;;16.80;78.90;;;;;;4959946;28;20426;-66
2024/02/13 11:18:50;;;;;;;0.30;0.30;;;16.00;79.90;;;;;;4972689;28;20212;-67
2024/02/13 11:21:21;;;;;;;0.30;0.30;;;15.70;82.80;;;;;;4974256;28;20469;-65
2024/02/13 11:23:58;;;;;;;0.30;0.30;;;15.90;82.90;;;;;;4972811;28;20416;-67
2024/02/13 11:26:30;;;;;;;0.30;0.20;;;16.20;82.80;;;;;;4973459;28;20402;-69
2024/02/13 11:28:56;;;;;;;0.30;0.20;;;16.30;82.20;;;;;;4974355;28;20419;-69
2024/02/13 11:31:26;;;;;;;0.30;0.30;;;16.20;82.90;;;;;;4973956;28;20415;-67
2024/02/13 11:34:08;;;;;;;0.30;0.20;;;16.00;81.90;;;;;;4973971;28;20172;-65
2024/02/13 11:36:34;;;;;;;0.30;0.30;;;15.70;81.50;;;;;;4935217;29;20504;-65
2024/02/13 11:39:04;;;;;;;0.30;0.30;;;15.40;80.80;;;;;;4935602;29;20955;-66
2024/02/13 11:41:31;;;;;;;0.40;0.40;;;15.20;82.00;;;;;;4935721;29;20407;-64
2024/02/13 11:44:11;;;;;;;0.30;0.30;;;15.10;83.10;;;;;;4935656;29;20489;-67
2024/02/13 11:46:54;;;;;;;0.30;0.30;;;14.80;90.20;;;;;;4935132;29;20440;-67
2024/02/13 11:49:20;;;;;;;0.30;0.30;;;14.60;91.40;;;;;;4935567;29;20473;-63
2024/02/13 11:51:47;;;;;;;0.30;0.30;;;14.40;91.20;;;;;;4935520;29;20441;-68
2024/02/13 11:54:12;;;;;;;0.40;0.37;;;14.20;91.00;;;;;;4936740;29;20671;-64
2024/02/13 11:56:38;;;;;;;0.30;0.30;;;14.10;91.90;;;;;;4953876;28;20454;-64
2024/02/13 11:59:05;;;;;;;0.30;0.27;;;14.00;92.40;;;;;;4954313;28;20206;-64
2024/02/13 12:01:33;;;;;;;0.30;0.20;;;13.80;92.40;;;;;;4957843;28;20452;-68
2024/02/13 12:03:59;;;;;;;0.30;0.20;;;13.70;93.20;;;;;;4956774;28;20443;-64
2024/02/13 12:06:25;;;;;;;0.30;0.20;;;13.50;93.20;;;;;;4939090;28;20924;-67
2024/02/13 12:08:50;;;;;;;0.40;0.40;;;13.40;93.70;;;;;;4937492;29;20178;-66
2024/02/13 12:11:17;;;;;;;0.30;0.20;;;13.30;93.90;;;;;;4938839;29;20183;-65
2024/02/13 12:13:42;;;;;;;0.30;0.30;;;13.40;94.10;;;;;;4939120;29;20179;-65
2024/02/13 12:16:09;;;;;;;0.30;0.23;;;13.50;93.80;;;;;;4953686;29;20953;-65
2024/02/13 12:18:38;;;;;;;0.30;0.20;;;13.60;93.40;;;;;;4958064;28;20192;-65
2024/02/13 12:21:07;;;;;;;0.30;0.30;;;13.70;92.90;;;;;;4957758;28;20415;-65
2024/02/13 12:23:33;;;;;;;0.30;0.30;;;13.60;92.50;;;;;;4957815;28;20549;-65
2024/02/13 12:26:06;;;;;;;0.30;0.30;;;13.50;92.50;;;;;;4943699;28;20524;-65
2024/02/13 12:28:32;;;;;;;0.30;0.30;;;13.50;91.80;;;;;;4938952;29;20171;-66
2024/02/13 12:31:02;;;;;;;0.30;0.30;;;13.50;92.30;;;;;;4938758;29;20402;-64
2024/02/13 12:33:28;;;;;;;0.30;0.30;;;13.50;92.70;;;;;;4937157;29;20943;-66
2024/02/13 12:36:07;;;;;;;0.30;0.23;;;13.40;91.50;;;;;;4952728;29;20453;-65
2024/02/13 12:38:36;;;;;;;0.30;0.20;;;13.30;91.30;;;;;;4957634;28;20404;-68
2024/02/13 12:41:04;;;;;;;0.30;0.30;;;13.30;91.60;;;;;;4957761;28;20418;-65
2024/02/13 12:43:30;;;;;;;0.30;0.20;;;13.20;92.00;;;;;;4957804;28;20409;-67
2024/02/13 12:46:02;;;;;;;0.30;0.30;;;13.20;91.30;;;;;;4942482;28;20433;-66
2024/02/13 12:48:35;;;;;;;0.30;0.30;;;13.10;91.90;;;;;;4938615;29;20429;-67
2024/02/13 12:51:02;;;;;;;0.30;0.30;;;13.10;91.90;;;;;;4938355;29;20405;-65
2024/02/13 12:53:34;;;;;;;0.30;0.20;;;13.20;91.80;;;;;;4936952;29;20416;-64
2024/02/13 12:56:00;;;;;;;0.30;0.20;;;13.10;92.50;;;;;;4952306;29;20454;-63
2024/02/13 12:58:26;;;;;;;1.07;0.60;;;13.10;91.50;;;;;;4957144;28;20413;-65
2024/02/13 13:00:52;;;;;;;0.30;0.30;;;13.00;91.50;;;;;;4957179;28;20411;-63
2024/02/13 13:03:19;;;;;;;0.30;0.30;;;12.90;91.90;;;;;;4956963;28;20215;-66
2024/02/13 13:05:48;;;;;;;0.30;0.20;;;12.80;92.20;;;;;;4944217;28;20271;-67
2024/02/13 13:08:17;;;;;;;0.30;0.30;;;12.80;92.30;;;;;;4938497;29;20452;-69
2024/02/13 13:10:44;;;;;;;0.30;0.20;;;12.70;92.90;;;;;;4937773;29;20401;-66
2024/02/13 13:13:13;;;;;;;0.30;0.27;;;12.50;92.50;;;;;;4937018;29;20410;-64
2024/02/13 13:15:40;;;;;;;0.30;0.30;;;12.50;93.00;;;;;;4947178;29;20440;-65
2024/02/13 13:18:11;;;;;;;0.30;0.30;;;12.50;93.00;;;;;;4956863;28;20425;-66
2024/02/13 13:20:37;;;;;;;0.30;0.30;;;12.50;92.70;;;;;;4956775;28;20459;-66
2024/02/13 13:23:04;;;;;;;0.30;0.30;;;12.60;93.00;;;;;;4956658;28;20412;-68
2024/02/13 13:25:34;;;;;;;0.30;0.27;;;12.60;92.70;;;;;;4946167;28;20644;-68
2024/02/13 13:28:09;;;;;;;0.80;0.80;;;12.60;92.20;;;;;;4937644;29;20400;-64
2024/02/13 13:30:36;;;;;;;0.30;0.30;;;12.50;92.40;;;;;;4937628;29;20423;-64
2024/02/13 13:33:05;;;;;;;0.30;0.30;;;12.50;92.40;;;;;;4937663;29;20413;-62
2024/02/13 13:35:31;;;;;;;0.30;0.20;;;12.40;92.60;;;;;;4945962;29;20440;-64
2024/02/13 13:38:01;;;;;;;0.30;0.20;;;12.30;92.50;;;;;;4956699;28;20784;-69
2024/02/13 13:40:37;;;;;;;0.30;0.30;;;12.30;92.50;;;;;;4956535;28;20865;-67
2024/02/13 13:43:05;;;;;;;0.30;0.20;;;12.30;92.70;;;;;;4956629;28;20426;-67
2024/02/13 13:45:31;;;;;;;0.30;0.30;;;12.20;92.40;;;;;;4947036;28;20433;-68
2024/02/13 13:47:57;;;;;;;0.30;0.30;;;12.20;92.70;;;;;;4937431;29;20416;-65
2024/02/13 13:50:24;;;;;;;0.30;0.30;;;12.20;93.20;;;;;;4937543;29;20421;-67
2024/02/13 13:52:53;;;;;;;0.30;0.30;;;12.20;93.50;;;;;;4937255;29;20199;-66
2024/02/13 13:55:20;;;;;;;0.30;0.30;;;12.20;93.80;;;;;;4952222;29;20853;-66
2024/02/13 13:57:46;;;;;;;0.30;0.30;;;12.20;93.60;;;;;;4956432;28;20408;-66
2024/02/13 14:00:20;;;;;;;0.30;0.30;;;12.20;93.40;;;;;;4956345;28;20966;-73
2024/02/13 14:02:47;;;;;;;0.30;0.30;;;12.20;93.40;;;;;;4955535;29;20492;-66
2024/02/13 14:05:13;;;;;;;0.30;0.30;;;12.20;93.00;;;;;;4968998;28;20393;-69
2024/02/13 14:07:39;;;;;;;0.30;0.20;;;12.20;93.10;;;;;;4973908;28;20442;-65
2024/02/13 14:10:12;;;;;;;0.30;0.30;;;12.20;93.30;;;;;;4975207;28;20426;-69
2024/02/13 14:12:40;;;;;;;0.30;0.30;;;12.10;92.60;;;;;;4967537;28;20713;-66
2024/02/13 14:15:06;;;;;;;0.30;0.20;;;12.10;92.80;;;;;;4955290;28;20420;-69
2024/02/13 14:17:32;;;;;;;0.30;0.30;;;12.10;92.70;;;;;;4955984;28;20748;-65
2024/02/13 14:19:58;;;;;;;0.30;0.30;;;12.10;92.50;;;;;;4954478;29;20451;-68
2024/02/13 14:22:26;;;;;;;0.30;0.30;;;12.00;91.90;;;;;;4951077;28;20593;-65
2024/02/13 14:24:52;;;;;;;0.30;0.30;;;12.00;91.70;;;;;;4948307;28;20607;-67
2024/02/13 14:27:18;;;;;;;0.30;0.30;;;11.90;90.90;;;;;;4955704;28;20471;-65
2024/02/13 14:29:44;;;;;;;0.33;0.33;;;11.70;90.60;;;;;;4955605;28;20171;-68
2024/02/13 14:32:10;;;;;;;0.30;0.30;;;11.50;90.80;;;;;;4955737;29;20494;-67
2024/02/13 14:34:38;;;;;;;0.30;0.30;;;11.40;91.30;;;;;;4953798;28;20199;-68
2024/02/13 14:37:06;;;;;;;0.30;0.30;;;11.40;91.70;;;;;;4951647;28;20526;-66
2024/02/13 14:39:32;;;;;;;0.37;0.37;;;11.30;92.40;;;;;;4950471;28;20539;-69
2024/02/13 14:41:59;;;;;;;0.30;0.30;;;11.30;93.20;;;;;;4950990;29;20743;-66
2024/02/13 14:44:25;;;;;;;0.30;0.30;;;11.30;93.80;;;;;;4947963;28;20424;-68
2024/02/13 14:46:52;;;;;;;0.30;0.30;;;11.30;94.20;;;;;;4937142;29;20447;-70
2024/02/13 14:49:18;;;;;;;0.30;0.30;;;11.20;94.40;;;;;;4937059;29;20180;-65
2024/02/13 14:51:44;;;;;;;0.33;0.33;;;11.20;94.60;;;;;;4937434;28;20411;-66
2024/02/13 14:54:10;;;;;;;0.30;0.30;;;11.20;94.80;;;;;;4938962;29;20176;-66
2024/02/13 14:56:36;;;;;;;0.30;0.30;;;11.20;94.60;;;;;;4954521;28;20435;-68
2024/02/13 14:59:03;;;;;;;0.30;0.30;;;11.20;94.50;;;;;;4954779;28;20463;-68
2024/02/13 15:01:29;;;;;;;0.30;0.30;;;11.10;94.50;;;;;;4952711;29;20216;-68
2024/02/13 15:03:55;;;;;;;0.30;0.30;;;11.00;94.20;;;;;;4936066;29;20419;-65
2024/02/13 15:06:22;;;;;;;0.30;0.30;;;10.90;94.20;;;;;;4934065;29;20962;-65
2024/02/13 15:08:51;;;;;;;0.30;0.30;;;10.90;94.60;;;;;;4936013;29;20534;-67
2024/02/13 15:11:31;;;;;;;0.30;0.30;;;10.70;94.90;;;;;;4936153;29;20499;-67
2024/02/13 15:13:58;;;;;;;0.30;0.30;;;10.70;95.10;;;;;;4938486;29;20403;-66
2024/02/13 15:16:26;;;;;;;0.30;0.30;;;10.70;95.00;;;;;;4934269;29;20803;-69
2024/02/13 15:18:51;;;;;;;0.30;0.30;;;10.60;95.10;;;;;;4936762;29;20546;-68
2024/02/13 15:21:17;;;;;;;0.30;0.30;;;10.60;95.20;;;;;;4954685;28;20446;-66
2024/02/13 15:23:43;;;;;;;0.30;0.30;;;10.70;95.60;;;;;;4955434;28;20258;-67
2024/02/13 15:26:10;;;;;;;0.30;0.30;;;10.70;95.50;;;;;;4954122;28;20267;-65
2024/02/13 15:28:35;;;;;;;0.30;0.30;;;10.70;95.30;;;;;;4954616;28;20391;-67
2024/02/13 15:31:01;;;;;;;0.40;0.40;;;10.60;95.40;;;;;;4950989;28;20507;-67
2024/02/13 15:33:27;;;;;;;0.30;0.30;;;10.60;95.40;;;;;;4954935;28;20529;-66
2024/02/13 15:36:02;;;;;;;0.30;0.30;;;10.60;95.40;;;;;;4955600;28;20194;-65
2024/02/13 15:47:07;;;;;;;0.40;0.40;;;10.30;95.50;;;;;;4939355;29;20515;-68
2024/02/13 15:49:39;;;;;;;0.30;0.30;;;10.30;95.40;;;;;;4940763;29;20422;-65
2024/02/13 15:52:05;;;;;;;0.30;0.30;;;10.30;95.60;;;;;;4938157;29;20203;-65
2024/02/13 15:54:31;;;;;;;0.30;0.30;;;10.20;95.80;;;;;;4940073;29;20432;-65
2024/02/13 15:56:58;;;;;;;0.30;0.30;;;10.10;95.90;;;;;;4939223;29;20672;-68
2024/02/13 15:59:24;;;;;;;0.30;0.30;;;10.00;95.90;;;;;;4940262;29;20209;-67
2024/02/13 16:01:50;;;;;;;0.55;0.40;;;10.00;96.10;;;;;;4958310;28;20706;-70
2024/02/13 16:04:18;;;;;;;0.30;0.30;;;9.90;96.70;;;;;;4958252;28;20185;-68
2024/02/13 16:06:45;;;;;;;0.30;0.30;;;9.90;96.70;;;;;;4956248;28;20206;-68
2024/02/13 16:09:15;;;;;;;0.30;0.30;;;9.80;96.70;;;;;;4958280;28;20183;-64
2024/02/13 16:11:42;;;;;;;0.40;0.40;;;9.80;96.60;;;;;;4975926;28;20652;-69
2024/02/13 16:14:08;;;;;;;0.30;0.30;;;9.70;96.60;;;;;;4977527;28;20185;-66
2024/02/13 16:16:35;;;;;;;0.30;0.30;;;9.60;96.60;;;;;;4961425;28;20206;-68
2024/02/13 16:19:03;;;;;;;0.30;0.30;;;9.50;96.50;;;;;;4949705;29;20247;-65
2024/02/13 16:21:29;;;;;;;0.30;0.30;;;9.50;96.70;;;;;;4954380;29;20570;-67
2024/02/13 16:23:55;;;;;;;0.30;0.30;;;9.40;96.80;;;;;;4956665;29;20185;-65
2024/02/13 16:26:22;;;;;;;0.30;0.30;;;9.40;96.90;;;;;;4956844;28;20679;-67
2024/02/13 16:28:48;;;;;;;0.30;0.30;;;9.30;96.90;;;;;;4953175;28;20300;-68
2024/02/13 16:31:13;;;;;;;0.30;0.30;;;9.20;97.10;;;;;;4951480;29;20180;-65
2024/02/13 16:33:39;;;;;;;0.30;0.30;;;9.20;97.10;;;;;;4945864;28;20252;-66
2024/02/13 16:36:05;;;;;;;0.30;0.30;;;9.20;97.20;;;;;;4938074;29;20249;-66
2024/02/13 16:38:31;;;;;;;0.30;0.30;;;9.10;97.30;;;;;;4938417;29;20564;-65
2024/02/13 16:40:56;;;;;;;0.30;0.30;;;9.00;97.40;;;;;;4949030;29;20235;-63
2024/02/13 16:43:22;;;;;;;0.30;0.30;;;9.00;97.60;;;;;;4955695;28;20212;-64
2024/02/13 16:45:48;;;;;;;0.40;0.40;;;8.90;97.70;;;;;;4952363;28;20694;-64
2024/02/13 16:48:16;;;;;;;0.30;0.30;;;8.90;97.70;;;;;;4957680;28;20173;-64
2024/02/13 16:50:42;;;;;;;0.30;0.30;;;8.80;98.00;;;;;;4958475;28;20534;-63
2024/02/13 16:53:09;;;;;;;0.37;0.37;;;8.80;98.20;;;;;;4970496;28;20180;-64
2024/02/13 16:55:36;;;;;;;0.30;0.30;;;8.70;98.50;;;;;;4941433;28;20201;-63
2024/02/13 16:58:03;;;;;;;0.30;0.30;;;8.60;98.50;;;;;;4949218;29;20564;-67
2024/02/13 17:00:28;;;;;;;0.30;0.30;;;8.60;98.70;;;;;;4939874;29;20198;-65
2024/02/13 17:02:54;;;;;;;0.30;0.30;;;8.60;99.20;;;;;;4936728;29;20517;-72
2024/02/13 17:05:22;;;;;;;0.30;0.30;;;8.60;99.20;;;;;;4937779;29;20628;-63
2024/02/13 17:07:48;;;;;;;0.30;0.30;;;8.50;99.50;;;;;;4938450;28;20196;-65
2024/02/13 17:10:15;;;;;;;0.30;0.30;;;8.50;99.50;;;;;;4956756;28;20176;-71
2024/02/13 17:12:42;;;;;;;0.30;0.30;;;8.50;99.90;;;;;;4947497;29;20197;-66
2024/02/13 17:15:09;;;;;;;0.30;0.30;;;8.40;99.90;;;;;;4952948;28;20177;-66
2024/02/13 17:17:39;;;;;;;0.30;0.30;;;8.40;99.90;;;;;;4951404;28;20206;-64
2024/02/13 17:20:11;;;;;;;0.30;0.30;;;8.40;99.90;;;;;;4956029;28;20213;-65
2024/02/13 17:22:41;;;;;;;0.30;0.30;;;8.40;99.90;;;;;;4957661;28;20179;-64
2024/02/13 17:25:16;;;;;;;0.30;0.30;;;8.40;99.90;;;;;;4953489;28;20669;-65
2024/02/13 17:27:42;;;;;;;0.30;0.30;;;8.30;99.90;;;;;;4976400;28;20641;-65
2024/02/13 17:30:14;;;;;;;0.30;0.30;;;8.30;99.90;;;;;;4970504;28;20185;-65
2024/02/13 17:32:44;;;;;;;0.30;0.30;;;8.30;99.90;;;;;;4956435;28;20559;-65
2024/02/13 17:35:10;;;;;;;0.30;0.30;;;8.30;99.90;;;;;;4956465;28;20517;-67
2024/02/13 17:37:36;;;;;;;0.50;0.40;;;8.20;99.90;;;;;;4955188;29;20173;-67
2024/02/13 17:40:07;;;;;;;0.30;0.30;;;8.20;99.90;;;;;;4955643;28;20512;-68
2024/02/13 17:42:34;;;;;;;0.30;0.30;;;8.10;99.90;;;;;;4956363;28;20256;-68
2024/02/13 17:45:00;;;;;;;0.32;0.32;;;8.10;99.90;;;;;;4956146;29;20179;-67
2024/02/13 17:47:25;;;;;;;0.30;0.30;;;8.10;99.90;;;;;;4938039;29;20194;-71
2024/02/13 17:49:51;;;;;;;0.30;0.30;;;8.10;99.90;;;;;;4936611;29;20601;-70
2024/02/13 17:52:18;;;;;;;2.08;1.15;;;8.10;99.90;;;;;;4917532;29;20203;-67
2024/02/13 17:54:43;;;;;;;0.30;0.30;;;8.20;99.90;;;;;;4936962;29;20181;-67
2024/02/13 17:57:09;;;;;;;0.30;0.30;;;8.20;99.90;;;;;;4942388;28;20671;-69
2024/02/13 17:59:36;;;;;;;1.67;1.10;;;8.20;99.90;;;;;;4945027;29;20256;-71
2024/02/13 18:02:03;;;;;;;0.30;0.30;;;8.20;99.90;;;;;;4953829;28;20259;-69
2024/02/13 18:04:29;;;;;;;0.30;0.30;;;8.20;99.90;;;;;;4955961;29;20169;-66
2024/02/13 18:06:55;;;;;;;1.07;1.07;;;8.20;99.90;;;;;;4955975;28;20209;-67